sensor_id;sensor_type;location;lat;lon;timestamp;P1;durP1;ratioP1;P2;durP2;ratioP2
27857;SDS011;16852;51.446;6.528;2023-02-03T00:00:42;14.55;;;7.20;;
27857;SDS011;16852;51.446;6.528;2023-02-03T00:02:42;12.43;;;7.15;;
27857;SDS011;16852;51.446;6.528;2023-02-03T00:04:43;11.45;;;7.68;;
27857;SDS011;16852;51.446;6.528;2023-02-03T00:06:43;12.55;;;7.05;;
27857;SDS011;16852;51.446;6.528;2023-02-03T00:08:44;14.70;;;7.20;;
27857;SDS011;16852;51.446;6.528;2023-02-03T00:10:45;20.45;;;8.00;;
27857;SDS011;16852;51.446;6.528;2023-02-03T00:12:49;14.93;;;8.18;;
27857;SDS011;16852;51.446;6.528;2023-02-03T00:14:51;15.60;;;7.72;;
27857;SDS011;16852;51.446;6.528;2023-02-03T00:16:52;13.35;;;7.82;;
27857;SDS011;16852;51.446;6.528;2023-02-03T00:18:52;14.23;;;7.90;;
27857;SDS011;16852;51.446;6.528;2023-02-03T00:20:53;16.20;;;8.27;;
27857;SDS011;16852;51.446;6.528;2023-02-03T00:22:53;16.40;;;7.75;;
27857;SDS011;16852;51.446;6.528;2023-02-03T00:24:54;15.60;;;8.00;;
27857;SDS011;16852;51.446;6.528;2023-02-03T00:26:55;18.15;;;9.85;;
27857;SDS011;16852;51.446;6.528;2023-02-03T00:28:57;15.55;;;8.38;;
27857;SDS011;16852;51.446;6.528;2023-02-03T00:30:59;13.77;;;8.20;;
27857;SDS011;16852;51.446;6.528;2023-02-03T00:33:00;14.40;;;8.30;;
27857;SDS011;16852;51.446;6.528;2023-02-03T00:35:01;10.90;;;7.65;;
27857;SDS011;16852;51.446;6.528;2023-02-03T00:37:01;16.02;;;8.80;;
27857;SDS011;16852;51.446;6.528;2023-02-03T00:39:02;16.30;;;8.13;;
27857;SDS011;16852;51.446;6.528;2023-02-03T00:41:02;17.25;;;9.35;;
27857;SDS011;16852;51.446;6.528;2023-02-03T00:43:03;15.00;;;8.68;;
27857;SDS011;16852;51.446;6.528;2023-02-03T00:45:04;17.05;;;9.18;;
27857;SDS011;16852;51.446;6.528;2023-02-03T00:47:05;15.55;;;8.45;;
27857;SDS011;16852;51.446;6.528;2023-02-03T00:49:05;15.43;;;9.88;;
27857;SDS011;16852;51.446;6.528;2023-02-03T00:51:06;13.98;;;8.52;;
27857;SDS011;16852;51.446;6.528;2023-02-03T00:53:07;17.08;;;8.88;;
27857;SDS011;16852;51.446;6.528;2023-02-03T00:55:08;16.35;;;8.95;;
27857;SDS011;16852;51.446;6.528;2023-02-03T00:57:08;17.80;;;8.50;;
27857;SDS011;16852;51.446;6.528;2023-02-03T00:59:09;12.52;;;7.82;;
27857;SDS011;16852;51.446;6.528;2023-02-03T01:01:10;15.95;;;8.50;;
27857;SDS011;16852;51.446;6.528;2023-02-03T01:03:10;15.73;;;9.27;;
27857;SDS011;16852;51.446;6.528;2023-02-03T01:05:11;13.40;;;8.32;;
27857;SDS011;16852;51.446;6.528;2023-02-03T01:07:12;18.27;;;9.48;;
27857;SDS011;16852;51.446;6.528;2023-02-03T01:09:12;10.90;;;7.88;;
27857;SDS011;16852;51.446;6.528;2023-02-03T01:11:15;15.23;;;9.00;;
27857;SDS011;16852;51.446;6.528;2023-02-03T01:13:18;15.93;;;8.38;;
27857;SDS011;16852;51.446;6.528;2023-02-03T01:15:18;24.52;;;10.80;;
27857;SDS011;16852;51.446;6.528;2023-02-03T01:17:19;17.80;;;8.43;;
27857;SDS011;16852;51.446;6.528;2023-02-03T01:19:20;15.68;;;8.40;;
27857;SDS011;16852;51.446;6.528;2023-02-03T01:21:21;12.48;;;8.43;;
27857;SDS011;16852;51.446;6.528;2023-02-03T01:23:23;12.80;;;7.95;;
27857;SDS011;16852;51.446;6.528;2023-02-03T01:25:24;22.48;;;9.15;;
27857;SDS011;16852;51.446;6.528;2023-02-03T01:27:24;15.98;;;8.15;;
27857;SDS011;16852;51.446;6.528;2023-02-03T01:29:25;14.25;;;7.25;;
27857;SDS011;16852;51.446;6.528;2023-02-03T01:31:30;16.95;;;8.25;;
27857;SDS011;16852;51.446;6.528;2023-02-03T01:33:34;15.30;;;7.25;;
27857;SDS011;16852;51.446;6.528;2023-02-03T01:35:34;13.70;;;8.05;;
27857;SDS011;16852;51.446;6.528;2023-02-03T01:37:35;17.80;;;8.18;;
27857;SDS011;16852;51.446;6.528;2023-02-03T01:39:35;11.73;;;7.00;;
27857;SDS011;16852;51.446;6.528;2023-02-03T01:41:37;14.60;;;7.30;;
27857;SDS011;16852;51.446;6.528;2023-02-03T01:43:39;16.27;;;7.20;;
27857;SDS011;16852;51.446;6.528;2023-02-03T01:45:42;20.15;;;6.38;;
27857;SDS011;16852;51.446;6.528;2023-02-03T01:49:55;16.38;;;7.13;;
27857;SDS011;16852;51.446;6.528;2023-02-03T01:52:12;17.20;;;7.75;;
27857;SDS011;16852;51.446;6.528;2023-02-03T01:54:14;15.25;;;7.38;;
27857;SDS011;16852;51.446;6.528;2023-02-03T01:56:19;14.63;;;6.68;;
27857;SDS011;16852;51.446;6.528;2023-02-03T01:58:22;11.40;;;6.65;;
27857;SDS011;16852;51.446;6.528;2023-02-03T02:00:25;18.00;;;7.13;;
27857;SDS011;16852;51.446;6.528;2023-02-03T02:02:26;11.75;;;6.68;;
27857;SDS011;16852;51.446;6.528;2023-02-03T02:04:30;13.45;;;6.43;;
27857;SDS011;16852;51.446;6.528;2023-02-03T02:06:38;15.48;;;6.32;;
27857;SDS011;16852;51.446;6.528;2023-02-03T02:08:39;14.52;;;6.80;;
27857;SDS011;16852;51.446;6.528;2023-02-03T02:10:43;16.30;;;6.35;;
27857;SDS011;16852;51.446;6.528;2023-02-03T02:12:44;10.77;;;6.00;;
27857;SDS011;16852;51.446;6.528;2023-02-03T02:14:45;12.45;;;6.20;;
27857;SDS011;16852;51.446;6.528;2023-02-03T02:31:52;16.98;;;5.30;;
27857;SDS011;16852;51.446;6.528;2023-02-03T02:33:58;11.40;;;4.45;;
27857;SDS011;16852;51.446;6.528;2023-02-03T02:38:35;13.50;;;4.35;;
27857;SDS011;16852;51.446;6.528;2023-02-03T02:43:02;10.43;;;4.18;;
27857;SDS011;16852;51.446;6.528;2023-02-03T02:45:55;13.85;;;4.20;;
27857;SDS011;16852;51.446;6.528;2023-02-03T02:47:40;13.35;;;4.72;;
27857;SDS011;16852;51.446;6.528;2023-02-03T02:49:42;11.15;;;4.10;;
27857;SDS011;16852;51.446;6.528;2023-02-03T02:52:06;8.27;;;3.67;;
27857;SDS011;16852;51.446;6.528;2023-02-03T02:54:07;9.17;;;3.73;;
27857;SDS011;16852;51.446;6.528;2023-02-03T02:56:12;10.20;;;3.95;;
27857;SDS011;16852;51.446;6.528;2023-02-03T02:58:16;8.90;;;3.90;;
27857;SDS011;16852;51.446;6.528;2023-02-03T03:00:19;8.90;;;3.60;;
27857;SDS011;16852;51.446;6.528;2023-02-03T03:02:21;10.40;;;3.53;;
27857;SDS011;16852;51.446;6.528;2023-02-03T03:04:30;11.90;;;3.78;;
27857;SDS011;16852;51.446;6.528;2023-02-03T03:06:35;6.97;;;3.28;;
27857;SDS011;16852;51.446;6.528;2023-02-03T03:10:51;11.45;;;3.60;;
27857;SDS011;16852;51.446;6.528;2023-02-03T03:15:08;8.10;;;3.47;;
27857;SDS011;16852;51.446;6.528;2023-02-03T03:17:12;7.75;;;3.38;;
27857;SDS011;16852;51.446;6.528;2023-02-03T03:19:28;9.23;;;3.22;;
27857;SDS011;16852;51.446;6.528;2023-02-03T03:21:35;11.52;;;3.47;;
27857;SDS011;16852;51.446;6.528;2023-02-03T03:23:41;7.15;;;3.17;;
27857;SDS011;16852;51.446;6.528;2023-02-03T03:25:46;9.85;;;3.53;;
27857;SDS011;16852;51.446;6.528;2023-02-03T03:27:51;8.02;;;3.55;;
27857;SDS011;16852;51.446;6.528;2023-02-03T03:29:57;9.73;;;3.13;;
27857;SDS011;16852;51.446;6.528;2023-02-03T03:32:02;10.65;;;3.58;;
27857;SDS011;16852;51.446;6.528;2023-02-03T03:34:03;10.57;;;3.55;;
27857;SDS011;16852;51.446;6.528;2023-02-03T03:36:17;8.38;;;3.10;;
27857;SDS011;16852;51.446;6.528;2023-02-03T03:38:29;9.50;;;3.63;;
27857;SDS011;16852;51.446;6.528;2023-02-03T03:40:42;5.47;;;2.70;;
27857;SDS011;16852;51.446;6.528;2023-02-03T03:45:03;7.88;;;3.28;;
27857;SDS011;16852;51.446;6.528;2023-02-03T03:47:13;9.10;;;3.53;;
27857;SDS011;16852;51.446;6.528;2023-02-03T03:49:22;6.93;;;2.95;;
27857;SDS011;16852;51.446;6.528;2023-02-03T03:51:26;15.32;;;3.70;;
27857;SDS011;16852;51.446;6.528;2023-02-03T03:53:31;10.02;;;3.47;;
27857;SDS011;16852;51.446;6.528;2023-02-03T03:55:34;5.93;;;2.67;;
27857;SDS011;16852;51.446;6.528;2023-02-03T03:57:37;9.25;;;3.33;;
27857;SDS011;16852;51.446;6.528;2023-02-03T03:59:44;11.25;;;3.40;;
27857;SDS011;16852;51.446;6.528;2023-02-03T04:01:47;10.43;;;3.63;;
27857;SDS011;16852;51.446;6.528;2023-02-03T04:03:51;10.82;;;3.60;;
27857;SDS011;16852;51.446;6.528;2023-02-03T04:05:55;12.35;;;3.65;;
27857;SDS011;16852;51.446;6.528;2023-02-03T04:07:56;11.77;;;3.42;;
27857;SDS011;16852;51.446;6.528;2023-02-03T04:09:58;10.07;;;3.65;;
27857;SDS011;16852;51.446;6.528;2023-02-03T04:11:58;5.90;;;3.33;;
27857;SDS011;16852;51.446;6.528;2023-02-03T04:14:02;11.27;;;3.95;;
27857;SDS011;16852;51.446;6.528;2023-02-03T04:16:03;7.75;;;2.70;;
27857;SDS011;16852;51.446;6.528;2023-02-03T04:18:04;10.48;;;3.22;;
27857;SDS011;16852;51.446;6.528;2023-02-03T04:20:05;7.90;;;3.53;;
27857;SDS011;16852;51.446;6.528;2023-02-03T04:22:06;11.70;;;4.20;;
27857;SDS011;16852;51.446;6.528;2023-02-03T04:24:06;6.97;;;3.53;;
27857;SDS011;16852;51.446;6.528;2023-02-03T04:26:07;11.02;;;3.33;;
27857;SDS011;16852;51.446;6.528;2023-02-03T04:28:07;7.40;;;3.35;;
27857;SDS011;16852;51.446;6.528;2023-02-03T04:30:08;10.63;;;3.80;;
27857;SDS011;16852;51.446;6.528;2023-02-03T04:32:10;10.98;;;3.97;;
27857;SDS011;16852;51.446;6.528;2023-02-03T04:34:10;7.47;;;3.17;;
27857;SDS011;16852;51.446;6.528;2023-02-03T04:36:11;9.15;;;3.70;;
27857;SDS011;16852;51.446;6.528;2023-02-03T04:38:11;8.88;;;3.08;;
27857;SDS011;16852;51.446;6.528;2023-02-03T04:40:12;9.98;;;3.40;;
27857;SDS011;16852;51.446;6.528;2023-02-03T04:42:12;11.10;;;3.67;;
27857;SDS011;16852;51.446;6.528;2023-02-03T04:44:13;9.40;;;3.03;;
27857;SDS011;16852;51.446;6.528;2023-02-03T04:46:14;9.20;;;3.42;;
27857;SDS011;16852;51.446;6.528;2023-02-03T04:48:14;8.02;;;3.17;;
27857;SDS011;16852;51.446;6.528;2023-02-03T04:50:15;12.02;;;3.97;;
27857;SDS011;16852;51.446;6.528;2023-02-03T04:52:15;8.63;;;2.88;;
27857;SDS011;16852;51.446;6.528;2023-02-03T04:54:16;8.88;;;3.20;;
27857;SDS011;16852;51.446;6.528;2023-02-03T04:56:17;5.88;;;2.42;;
27857;SDS011;16852;51.446;6.528;2023-02-03T04:58:17;8.27;;;2.80;;
27857;SDS011;16852;51.446;6.528;2023-02-03T05:00:18;9.13;;;3.25;;
27857;SDS011;16852;51.446;6.528;2023-02-03T05:02:19;5.30;;;2.70;;
27857;SDS011;16852;51.446;6.528;2023-02-03T05:04:19;14.27;;;3.22;;
27857;SDS011;16852;51.446;6.528;2023-02-03T05:06:23;9.93;;;3.00;;
27857;SDS011;16852;51.446;6.528;2023-02-03T05:08:25;8.25;;;3.03;;
27857;SDS011;16852;51.446;6.528;2023-02-03T05:10:25;9.18;;;2.83;;
27857;SDS011;16852;51.446;6.528;2023-02-03T05:12:26;9.73;;;3.08;;
27857;SDS011;16852;51.446;6.528;2023-02-03T05:14:26;11.40;;;2.75;;
27857;SDS011;16852;51.446;6.528;2023-02-03T05:16:27;6.35;;;2.63;;
27857;SDS011;16852;51.446;6.528;2023-02-03T05:18:28;5.90;;;2.60;;
27857;SDS011;16852;51.446;6.528;2023-02-03T05:20:28;11.82;;;2.75;;
27857;SDS011;16852;51.446;6.528;2023-02-03T05:22:29;10.63;;;3.22;;
27857;SDS011;16852;51.446;6.528;2023-02-03T05:24:29;7.97;;;2.72;;
27857;SDS011;16852;51.446;6.528;2023-02-03T05:26:30;12.07;;;2.88;;
27857;SDS011;16852;51.446;6.528;2023-02-03T05:28:30;10.32;;;2.33;;
27857;SDS011;16852;51.446;6.528;2023-02-03T05:30:31;5.90;;;2.30;;
27857;SDS011;16852;51.446;6.528;2023-02-03T05:32:31;8.32;;;2.53;;
27857;SDS011;16852;51.446;6.528;2023-02-03T05:34:32;8.52;;;2.85;;
27857;SDS011;16852;51.446;6.528;2023-02-03T05:36:32;10.30;;;2.63;;
27857;SDS011;16852;51.446;6.528;2023-02-03T05:38:33;8.73;;;2.65;;
27857;SDS011;16852;51.446;6.528;2023-02-03T05:40:34;13.35;;;3.05;;
27857;SDS011;16852;51.446;6.528;2023-02-03T05:42:53;8.35;;;2.50;;
27857;SDS011;16852;51.446;6.528;2023-02-03T05:44:53;10.13;;;3.30;;
27857;SDS011;16852;51.446;6.528;2023-02-03T05:46:54;10.27;;;2.75;;
27857;SDS011;16852;51.446;6.528;2023-02-03T05:48:57;8.25;;;2.10;;
27857;SDS011;16852;51.446;6.528;2023-02-03T05:50:57;10.80;;;2.65;;
27857;SDS011;16852;51.446;6.528;2023-02-03T05:52:59;9.95;;;2.60;;
27857;SDS011;16852;51.446;6.528;2023-02-03T05:55:00;6.85;;;2.53;;
27857;SDS011;16852;51.446;6.528;2023-02-03T05:57:00;9.00;;;2.53;;
27857;SDS011;16852;51.446;6.528;2023-02-03T05:59:02;11.18;;;2.95;;
27857;SDS011;16852;51.446;6.528;2023-02-03T06:01:03;8.10;;;2.63;;
27857;SDS011;16852;51.446;6.528;2023-02-03T06:03:04;12.65;;;2.90;;
27857;SDS011;16852;51.446;6.528;2023-02-03T06:05:04;11.63;;;2.50;;
27857;SDS011;16852;51.446;6.528;2023-02-03T06:07:05;7.05;;;2.40;;
27857;SDS011;16852;51.446;6.528;2023-02-03T06:09:06;8.93;;;2.83;;
27857;SDS011;16852;51.446;6.528;2023-02-03T06:11:08;8.27;;;2.17;;
27857;SDS011;16852;51.446;6.528;2023-02-03T06:13:09;7.05;;;2.20;;
27857;SDS011;16852;51.446;6.528;2023-02-03T06:15:12;7.50;;;2.28;;
27857;SDS011;16852;51.446;6.528;2023-02-03T06:17:13;13.05;;;2.95;;
27857;SDS011;16852;51.446;6.528;2023-02-03T06:19:13;6.20;;;2.35;;
27857;SDS011;16852;51.446;6.528;2023-02-03T06:21:14;7.57;;;2.65;;
27857;SDS011;16852;51.446;6.528;2023-02-03T06:23:14;9.10;;;2.72;;
27857;SDS011;16852;51.446;6.528;2023-02-03T06:25:16;7.47;;;2.47;;
27857;SDS011;16852;51.446;6.528;2023-02-03T06:27:16;6.43;;;2.53;;
27857;SDS011;16852;51.446;6.528;2023-02-03T06:29:17;9.45;;;2.53;;
27857;SDS011;16852;51.446;6.528;2023-02-03T06:31:18;7.38;;;2.53;;
27857;SDS011;16852;51.446;6.528;2023-02-03T06:33:18;11.77;;;2.50;;
27857;SDS011;16852;51.446;6.528;2023-02-03T06:35:19;12.13;;;4.05;;
27857;SDS011;16852;51.446;6.528;2023-02-03T06:37:20;10.60;;;2.38;;
27857;SDS011;16852;51.446;6.528;2023-02-03T06:39:20;8.40;;;2.80;;
27857;SDS011;16852;51.446;6.528;2023-02-03T06:41:21;6.47;;;2.00;;
27857;SDS011;16852;51.446;6.528;2023-02-03T06:43:26;7.57;;;2.35;;
27857;SDS011;16852;51.446;6.528;2023-02-03T06:45:27;5.68;;;2.25;;
27857;SDS011;16852;51.446;6.528;2023-02-03T06:47:27;9.95;;;2.40;;
27857;SDS011;16852;51.446;6.528;2023-02-03T06:49:28;15.70;;;2.92;;
27857;SDS011;16852;51.446;6.528;2023-02-03T06:51:29;8.20;;;2.67;;
27857;SDS011;16852;51.446;6.528;2023-02-03T06:53:30;9.95;;;2.38;;
27857;SDS011;16852;51.446;6.528;2023-02-03T06:55:30;17.13;;;2.83;;
27857;SDS011;16852;51.446;6.528;2023-02-03T06:57:31;9.07;;;2.70;;
27857;SDS011;16852;51.446;6.528;2023-02-03T06:59:32;9.82;;;2.97;;
27857;SDS011;16852;51.446;6.528;2023-02-03T07:01:32;8.43;;;2.28;;
27857;SDS011;16852;51.446;6.528;2023-02-03T07:03:33;5.85;;;2.17;;
27857;SDS011;16852;51.446;6.528;2023-02-03T07:05:33;7.22;;;2.55;;
27857;SDS011;16852;51.446;6.528;2023-02-03T07:07:35;10.13;;;2.15;;
27857;SDS011;16852;51.446;6.528;2023-02-03T07:09:38;7.55;;;2.50;;
27857;SDS011;16852;51.446;6.528;2023-02-03T07:11:39;6.63;;;2.10;;
27857;SDS011;16852;51.446;6.528;2023-02-03T07:13:39;8.27;;;2.45;;
27857;SDS011;16852;51.446;6.528;2023-02-03T07:15:40;10.00;;;2.50;;
27857;SDS011;16852;51.446;6.528;2023-02-03T07:17:41;10.73;;;1.95;;
27857;SDS011;16852;51.446;6.528;2023-02-03T07:19:41;7.60;;;2.47;;
27857;SDS011;16852;51.446;6.528;2023-02-03T07:21:42;7.45;;;2.45;;
27857;SDS011;16852;51.446;6.528;2023-02-03T07:23:45;9.27;;;2.50;;
27857;SDS011;16852;51.446;6.528;2023-02-03T07:25:46;7.47;;;2.40;;
27857;SDS011;16852;51.446;6.528;2023-02-03T07:27:46;10.48;;;2.78;;
27857;SDS011;16852;51.446;6.528;2023-02-03T07:29:47;10.77;;;2.20;;
27857;SDS011;16852;51.446;6.528;2023-02-03T07:31:48;9.45;;;2.35;;
27857;SDS011;16852;51.446;6.528;2023-02-03T07:33:48;5.80;;;2.13;;
27857;SDS011;16852;51.446;6.528;2023-02-03T07:35:52;6.43;;;2.38;;
27857;SDS011;16852;51.446;6.528;2023-02-03T07:37:53;9.45;;;2.80;;
27857;SDS011;16852;51.446;6.528;2023-02-03T07:39:53;6.55;;;1.65;;
27857;SDS011;16852;51.446;6.528;2023-02-03T07:41:54;9.18;;;2.33;;
27857;SDS011;16852;51.446;6.528;2023-02-03T07:43:54;6.97;;;2.00;;
27857;SDS011;16852;51.446;6.528;2023-02-03T07:45:55;8.80;;;2.15;;
27857;SDS011;16852;51.446;6.528;2023-02-03T07:47:56;5.32;;;1.80;;
27857;SDS011;16852;51.446;6.528;2023-02-03T07:49:56;6.93;;;1.95;;
27857;SDS011;16852;51.446;6.528;2023-02-03T07:51:57;6.30;;;1.98;;
27857;SDS011;16852;51.446;6.528;2023-02-03T07:53:57;8.23;;;2.38;;
27857;SDS011;16852;51.446;6.528;2023-02-03T07:55:58;9.77;;;2.10;;
27857;SDS011;16852;51.446;6.528;2023-02-03T07:58:00;9.85;;;2.10;;
27857;SDS011;16852;51.446;6.528;2023-02-03T08:00:01;6.38;;;1.88;;
27857;SDS011;16852;51.446;6.528;2023-02-03T08:02:02;10.77;;;2.78;;
27857;SDS011;16852;51.446;6.528;2023-02-03T08:04:04;6.90;;;2.13;;
27857;SDS011;16852;51.446;6.528;2023-02-03T08:06:04;6.95;;;2.15;;
27857;SDS011;16852;51.446;6.528;2023-02-03T08:08:05;5.82;;;1.80;;
27857;SDS011;16852;51.446;6.528;2023-02-03T08:10:06;8.15;;;2.30;;
27857;SDS011;16852;51.446;6.528;2023-02-03T08:12:07;5.27;;;2.00;;
27857;SDS011;16852;51.446;6.528;2023-02-03T08:14:08;6.22;;;2.15;;
27857;SDS011;16852;51.446;6.528;2023-02-03T08:16:09;11.85;;;2.17;;
27857;SDS011;16852;51.446;6.528;2023-02-03T08:18:09;6.82;;;2.28;;
27857;SDS011;16852;51.446;6.528;2023-02-03T08:20:11;7.03;;;2.00;;
27857;SDS011;16852;51.446;6.528;2023-02-03T08:22:12;10.98;;;2.47;;
27857;SDS011;16852;51.446;6.528;2023-02-03T08:24:16;6.63;;;1.95;;
27857;SDS011;16852;51.446;6.528;2023-02-03T08:26:16;8.15;;;2.13;;
27857;SDS011;16852;51.446;6.528;2023-02-03T08:28:17;5.80;;;1.95;;
27857;SDS011;16852;51.446;6.528;2023-02-03T08:30:18;10.13;;;2.15;;
27857;SDS011;16852;51.446;6.528;2023-02-03T08:32:19;6.70;;;1.73;;
27857;SDS011;16852;51.446;6.528;2023-02-03T08:34:21;7.13;;;2.05;;
27857;SDS011;16852;51.446;6.528;2023-02-03T08:36:22;9.38;;;2.08;;
27857;SDS011;16852;51.446;6.528;2023-02-03T08:38:22;9.60;;;2.50;;
27857;SDS011;16852;51.446;6.528;2023-02-03T08:40:23;5.60;;;1.98;;
27857;SDS011;16852;51.446;6.528;2023-02-03T08:42:24;6.30;;;2.08;;
27857;SDS011;16852;51.446;6.528;2023-02-03T08:44:24;8.85;;;2.30;;
27857;SDS011;16852;51.446;6.528;2023-02-03T08:46:25;11.82;;;2.50;;
27857;SDS011;16852;51.446;6.528;2023-02-03T08:48:26;8.48;;;2.53;;
27857;SDS011;16852;51.446;6.528;2023-02-03T08:50:26;7.50;;;1.92;;
27857;SDS011;16852;51.446;6.528;2023-02-03T08:52:27;4.13;;;1.80;;
27857;SDS011;16852;51.446;6.528;2023-02-03T08:54:27;10.15;;;2.50;;
27857;SDS011;16852;51.446;6.528;2023-02-03T08:56:28;11.13;;;1.95;;
27857;SDS011;16852;51.446;6.528;2023-02-03T08:58:28;6.40;;;2.17;;
27857;SDS011;16852;51.446;6.528;2023-02-03T09:00:29;5.55;;;2.40;;
27857;SDS011;16852;51.446;6.528;2023-02-03T09:02:30;4.18;;;1.70;;
27857;SDS011;16852;51.446;6.528;2023-02-03T09:04:30;4.43;;;1.80;;
27857;SDS011;16852;51.446;6.528;2023-02-03T09:06:32;7.57;;;2.22;;
27857;SDS011;16852;51.446;6.528;2023-02-03T09:08:33;5.45;;;2.05;;
27857;SDS011;16852;51.446;6.528;2023-02-03T09:10:34;7.15;;;2.13;;
27857;SDS011;16852;51.446;6.528;2023-02-03T09:12:35;6.57;;;1.98;;
27857;SDS011;16852;51.446;6.528;2023-02-03T09:14:35;8.02;;;1.90;;
27857;SDS011;16852;51.446;6.528;2023-02-03T09:16:36;8.13;;;2.20;;
27857;SDS011;16852;51.446;6.528;2023-02-03T09:18:37;4.05;;;1.65;;
27857;SDS011;16852;51.446;6.528;2023-02-03T09:20:38;6.95;;;2.15;;
27857;SDS011;16852;51.446;6.528;2023-02-03T09:22:39;4.97;;;2.05;;
27857;SDS011;16852;51.446;6.528;2023-02-03T09:24:39;7.20;;;2.05;;
27857;SDS011;16852;51.446;6.528;2023-02-03T09:26:40;7.50;;;1.77;;
27857;SDS011;16852;51.446;6.528;2023-02-03T09:28:41;6.85;;;2.42;;
27857;SDS011;16852;51.446;6.528;2023-02-03T09:30:41;7.50;;;2.28;;
27857;SDS011;16852;51.446;6.528;2023-02-03T09:32:42;5.85;;;1.92;;
27857;SDS011;16852;51.446;6.528;2023-02-03T09:34:43;10.55;;;2.03;;
27857;SDS011;16852;51.446;6.528;2023-02-03T09:36:44;6.82;;;2.08;;
27857;SDS011;16852;51.446;6.528;2023-02-03T09:38:45;4.80;;;1.60;;
27857;SDS011;16852;51.446;6.528;2023-02-03T09:40:46;5.28;;;1.75;;
27857;SDS011;16852;51.446;6.528;2023-02-03T09:42:58;9.18;;;2.15;;
27857;SDS011;16852;51.446;6.528;2023-02-03T09:45:23;11.10;;;2.30;;
27857;SDS011;16852;51.446;6.528;2023-02-03T09:47:31;6.53;;;2.53;;
27857;SDS011;16852;51.446;6.528;2023-02-03T09:49:37;12.15;;;2.67;;
27857;SDS011;16852;51.446;6.528;2023-02-03T09:51:47;8.85;;;2.95;;
27857;SDS011;16852;51.446;6.528;2023-02-03T09:54:04;8.02;;;2.10;;
27857;SDS011;16852;51.446;6.528;2023-02-03T09:56:33;12.10;;;2.30;;
27857;SDS011;16852;51.446;6.528;2023-02-03T09:58:35;6.93;;;2.25;;
27857;SDS011;16852;51.446;6.528;2023-02-03T10:09:26;8.25;;;2.53;;
27857;SDS011;16852;51.446;6.528;2023-02-03T10:16:11;13.05;;;2.33;;
27857;SDS011;16852;51.446;6.528;2023-02-03T10:18:35;9.60;;;2.45;;
27857;SDS011;16852;51.446;6.528;2023-02-03T10:20:45;7.07;;;2.63;;
27857;SDS011;16852;51.446;6.528;2023-02-03T10:22:50;12.57;;;2.60;;
27857;SDS011;16852;51.446;6.528;2023-02-03T10:26:55;10.25;;;2.53;;
27857;SDS011;16852;51.446;6.528;2023-02-03T10:28:57;6.00;;;1.92;;
27857;SDS011;16852;51.446;6.528;2023-02-03T10:31:06;8.77;;;2.25;;
27857;SDS011;16852;51.446;6.528;2023-02-03T10:33:16;7.47;;;2.40;;
27857;SDS011;16852;51.446;6.528;2023-02-03T10:35:18;10.20;;;2.40;;
27857;SDS011;16852;51.446;6.528;2023-02-03T10:37:30;8.43;;;2.53;;
27857;SDS011;16852;51.446;6.528;2023-02-03T10:39:32;6.45;;;2.10;;
27857;SDS011;16852;51.446;6.528;2023-02-03T10:41:46;10.63;;;2.65;;
27857;SDS011;16852;51.446;6.528;2023-02-03T10:43:48;9.43;;;2.20;;
27857;SDS011;16852;51.446;6.528;2023-02-03T10:45:50;6.47;;;1.85;;
27857;SDS011;16852;51.446;6.528;2023-02-03T10:47:51;10.35;;;2.15;;
27857;SDS011;16852;51.446;6.528;2023-02-03T10:49:55;8.45;;;1.92;;
27857;SDS011;16852;51.446;6.528;2023-02-03T10:51:58;8.23;;;2.30;;
27857;SDS011;16852;51.446;6.528;2023-02-03T10:54:02;5.90;;;2.00;;
27857;SDS011;16852;51.446;6.528;2023-02-03T10:56:04;12.55;;;2.70;;
27857;SDS011;16852;51.446;6.528;2023-02-03T10:58:10;11.43;;;2.33;;
27857;SDS011;16852;51.446;6.528;2023-02-03T11:00:33;6.53;;;2.00;;
27857;SDS011;16852;51.446;6.528;2023-02-03T11:02:35;10.90;;;2.25;;
27857;SDS011;16852;51.446;6.528;2023-02-03T11:04:36;8.52;;;2.25;;
27857;SDS011;16852;51.446;6.528;2023-02-03T11:06:36;13.65;;;2.47;;
27857;SDS011;16852;51.446;6.528;2023-02-03T11:08:54;7.47;;;2.17;;
27857;SDS011;16852;51.446;6.528;2023-02-03T11:11:00;9.40;;;2.00;;
27857;SDS011;16852;51.446;6.528;2023-02-03T11:13:10;8.45;;;2.20;;
27857;SDS011;16852;51.446;6.528;2023-02-03T11:15:18;21.80;;;3.40;;
27857;SDS011;16852;51.446;6.528;2023-02-03T11:17:20;13.60;;;2.47;;
27857;SDS011;16852;51.446;6.528;2023-02-03T11:19:22;10.70;;;2.15;;
27857;SDS011;16852;51.446;6.528;2023-02-03T11:21:29;16.13;;;2.58;;
27857;SDS011;16852;51.446;6.528;2023-02-03T11:23:32;8.85;;;2.58;;
27857;SDS011;16852;51.446;6.528;2023-02-03T11:25:33;16.02;;;2.97;;
27857;SDS011;16852;51.446;6.528;2023-02-03T11:27:34;10.18;;;2.60;;
27857;SDS011;16852;51.446;6.528;2023-02-03T11:29:42;13.00;;;3.08;;
27857;SDS011;16852;51.446;6.528;2023-02-03T11:31:46;8.25;;;2.30;;
27857;SDS011;16852;51.446;6.528;2023-02-03T11:33:50;11.00;;;2.40;;
27857;SDS011;16852;51.446;6.528;2023-02-03T11:35:57;12.85;;;2.40;;
27857;SDS011;16852;51.446;6.528;2023-02-03T11:37:59;5.93;;;2.00;;
27857;SDS011;16852;51.446;6.528;2023-02-03T11:42:20;14.10;;;3.05;;
27857;SDS011;16852;51.446;6.528;2023-02-03T11:44:24;9.00;;;2.60;;
27857;SDS011;16852;51.446;6.528;2023-02-03T11:46:28;11.00;;;2.85;;
27857;SDS011;16852;51.446;6.528;2023-02-03T11:48:30;11.15;;;2.53;;
27857;SDS011;16852;51.446;6.528;2023-02-03T11:50:48;12.07;;;2.55;;
27857;SDS011;16852;51.446;6.528;2023-02-03T11:59:59;11.15;;;2.53;;
27857;SDS011;16852;51.446;6.528;2023-02-03T12:04:33;9.38;;;3.22;;
27857;SDS011;16852;51.446;6.528;2023-02-03T12:06:56;14.00;;;2.45;;
27857;SDS011;16852;51.446;6.528;2023-02-03T12:11:28;14.18;;;3.05;;
27857;SDS011;16852;51.446;6.528;2023-02-03T12:22:54;13.73;;;2.72;;
27857;SDS011;16852;51.446;6.528;2023-02-03T12:25:26;12.27;;;3.47;;
27857;SDS011;16852;51.446;6.528;2023-02-03T12:29:53;12.10;;;3.13;;
27857;SDS011;16852;51.446;6.528;2023-02-03T12:32:36;13.00;;;3.00;;
27857;SDS011;16852;51.446;6.528;2023-02-03T12:35:18;7.85;;;2.33;;
27857;SDS011;16852;51.446;6.528;2023-02-03T12:37:45;16.63;;;3.00;;
27857;SDS011;16852;51.446;6.528;2023-02-03T12:39:54;11.60;;;3.22;;
27857;SDS011;16852;51.446;6.528;2023-02-03T12:42:09;12.18;;;3.38;;
27857;SDS011;16852;51.446;6.528;2023-02-03T12:45:17;12.57;;;3.13;;
27857;SDS011;16852;51.446;6.528;2023-02-03T12:51:33;10.55;;;3.20;;
27857;SDS011;16852;51.446;6.528;2023-02-03T12:53:43;8.93;;;3.45;;
27857;SDS011;16852;51.446;6.528;2023-02-03T12:55:54;17.27;;;4.05;;
27857;SDS011;16852;51.446;6.528;2023-02-03T12:58:08;7.13;;;2.35;;
27857;SDS011;16852;51.446;6.528;2023-02-03T13:02:43;9.77;;;2.63;;
27857;SDS011;16852;51.446;6.528;2023-02-03T13:05:08;13.57;;;2.60;;
27857;SDS011;16852;51.446;6.528;2023-02-03T13:07:24;15.00;;;3.30;;
27857;SDS011;16852;51.446;6.528;2023-02-03T13:11:45;11.43;;;3.08;;
27857;SDS011;16852;51.446;6.528;2023-02-03T13:14:02;8.90;;;2.53;;
27857;SDS011;16852;51.446;6.528;2023-02-03T13:16:11;9.68;;;2.60;;
27857;SDS011;16852;51.446;6.528;2023-02-03T13:18:21;13.10;;;2.85;;
27857;SDS011;16852;51.446;6.528;2023-02-03T13:20:26;12.27;;;2.92;;
27857;SDS011;16852;51.446;6.528;2023-02-03T13:22:30;10.65;;;2.80;;
27857;SDS011;16852;51.446;6.528;2023-02-03T13:24:31;8.18;;;2.22;;
27857;SDS011;16852;51.446;6.528;2023-02-03T13:36:07;8.18;;;2.75;;
27857;SDS011;16852;51.446;6.528;2023-02-03T13:38:44;10.02;;;2.80;;
27857;SDS011;16852;51.446;6.528;2023-02-03T13:40:52;5.65;;;2.60;;
27857;SDS011;16852;51.446;6.528;2023-02-03T13:42:59;6.38;;;2.35;;
27857;SDS011;16852;51.446;6.528;2023-02-03T13:47:21;11.40;;;3.00;;
27857;SDS011;16852;51.446;6.528;2023-02-03T13:49:32;9.18;;;3.20;;
27857;SDS011;16852;51.446;6.528;2023-02-03T13:51:36;12.10;;;3.17;;